sensor_id;sensor_type;location;lat;lon;timestamp;temperature;humidity
802;DHT22;383;48.766;9.270;2022-09-16T00:00:07;14.70;99.10
802;DHT22;383;48.766;9.270;2022-09-16T00:02:36;14.80;99.00
802;DHT22;383;48.766;9.270;2022-09-16T00:05:03;14.90;98.40
802;DHT22;383;48.766;9.270;2022-09-16T00:07:30;14.90;98.40
802;DHT22;383;48.766;9.270;2022-09-16T00:09:57;14.90;98.50
802;DHT22;383;48.766;9.270;2022-09-16T00:12:23;14.90;98.60
802;DHT22;383;48.766;9.270;2022-09-16T00:14:51;14.80;99.10
802;DHT22;383;48.766;9.270;2022-09-16T00:17:17;14.80;99.40
802;DHT22;383;48.766;9.270;2022-09-16T00:19:45;14.90;99.00
802;DHT22;383;48.766;9.270;2022-09-16T00:22:13;15.00;98.70
802;DHT22;383;48.766;9.270;2022-09-16T00:24:39;15.00;98.80
802;DHT22;383;48.766;9.270;2022-09-16T00:27:06;15.10;98.50
802;DHT22;383;48.766;9.270;2022-09-16T00:29:33;15.00;98.60
802;DHT22;383;48.766;9.270;2022-09-16T00:32:00;15.00;98.60
802;DHT22;383;48.766;9.270;2022-09-16T00:34:27;15.10;98.50
802;DHT22;383;48.766;9.270;2022-09-16T00:36:55;15.10;98.20
802;DHT22;383;48.766;9.270;2022-09-16T00:39:21;15.10;98.30
802;DHT22;383;48.766;9.270;2022-09-16T00:41:48;15.00;98.60
802;DHT22;383;48.766;9.270;2022-09-16T00:44:50;15.00;98.90
802;DHT22;383;48.766;9.270;2022-09-16T00:47:20;15.00;99.20
802;DHT22;383;48.766;9.270;2022-09-16T00:49:48;15.00;99.20
802;DHT22;383;48.766;9.270;2022-09-16T00:52:18;15.00;99.30
802;DHT22;383;48.766;9.270;2022-09-16T00:54:45;15.10;99.20
802;DHT22;383;48.766;9.270;2022-09-16T00:57:13;15.10;98.90
802;DHT22;383;48.766;9.270;2022-09-16T00:59:42;15.10;99.00
802;DHT22;383;48.766;9.270;2022-09-16T01:02:12;15.10;99.10
802;DHT22;383;48.766;9.270;2022-09-16T01:04:44;15.10;99.50
802;DHT22;383;48.766;9.270;2022-09-16T01:07:11;15.10;99.10
802;DHT22;383;48.766;9.270;2022-09-16T01:09:39;15.10;99.30
802;DHT22;383;48.766;9.270;2022-09-16T01:12:06;15.10;99.30
802;DHT22;383;48.766;9.270;2022-09-16T01:14:33;15.10;99.10
802;DHT22;383;48.766;9.270;2022-09-16T01:17:24;15.10;99.00
802;DHT22;383;48.766;9.270;2022-09-16T01:23:10;15.10;99.30
802;DHT22;383;48.766;9.270;2022-09-16T01:25:57;15.20;98.70
802;DHT22;383;48.766;9.270;2022-09-16T01:28:42;15.10;99.20
802;DHT22;383;48.766;9.270;2022-09-16T01:31:15;15.20;99.40
802;DHT22;383;48.766;9.270;2022-09-16T01:33:51;15.20;99.10
802;DHT22;383;48.766;9.270;2022-09-16T01:36:31;15.10;99.20
802;DHT22;383;48.766;9.270;2022-09-16T01:39:07;15.20;98.70
802;DHT22;383;48.766;9.270;2022-09-16T01:41:46;15.20;98.70
802;DHT22;383;48.766;9.270;2022-09-16T01:44:22;15.20;98.90
802;DHT22;383;48.766;9.270;2022-09-16T01:46:59;15.20;99.10
802;DHT22;383;48.766;9.270;2022-09-16T01:49:34;15.20;99.20
802;DHT22;383;48.766;9.270;2022-09-16T01:52:08;15.20;99.00
802;DHT22;383;48.766;9.270;2022-09-16T01:54:40;15.20;98.90
802;DHT22;383;48.766;9.270;2022-09-16T01:57:12;15.30;98.50
802;DHT22;383;48.766;9.270;2022-09-16T01:59:43;15.20;98.40
802;DHT22;383;48.766;9.270;2022-09-16T02:02:17;15.10;98.80
802;DHT22;383;48.766;9.270;2022-09-16T02:04:48;15.10;98.90
802;DHT22;383;48.766;9.270;2022-09-16T02:07:20;15.00;98.90
802;DHT22;383;48.766;9.270;2022-09-16T02:09:51;15.00;99.00
802;DHT22;383;48.766;9.270;2022-09-16T02:12:24;14.90;99.40
802;DHT22;383;48.766;9.270;2022-09-16T02:14:56;14.90;99.80
802;DHT22;383;48.766;9.270;2022-09-16T02:17:26;14.90;99.90
802;DHT22;383;48.766;9.270;2022-09-16T02:19:56;14.90;99.80
802;DHT22;383;48.766;9.270;2022-09-16T02:22:30;14.90;99.50
802;DHT22;383;48.766;9.270;2022-09-16T02:24:58;14.90;99.60
802;DHT22;383;48.766;9.270;2022-09-16T02:27:27;14.90;99.60
802;DHT22;383;48.766;9.270;2022-09-16T02:29:57;14.80;99.80
802;DHT22;383;48.766;9.270;2022-09-16T02:32:28;14.80;99.90
802;DHT22;383;48.766;9.270;2022-09-16T02:34:58;14.80;99.90
802;DHT22;383;48.766;9.270;2022-09-16T02:37:28;14.80;99.90
802;DHT22;383;48.766;9.270;2022-09-16T02:39:58;14.80;99.90
802;DHT22;383;48.766;9.270;2022-09-16T02:42:29;14.70;99.90
802;DHT22;383;48.766;9.270;2022-09-16T02:44:57;14.80;99.90
802;DHT22;383;48.766;9.270;2022-09-16T02:47:30;14.70;99.50
802;DHT22;383;48.766;9.270;2022-09-16T02:50:00;14.70;99.70
802;DHT22;383;48.766;9.270;2022-09-16T02:52:37;14.80;99.40
802;DHT22;383;48.766;9.270;2022-09-16T02:55:09;14.80;99.20
802;DHT22;383;48.766;9.270;2022-09-16T02:57:39;14.80;99.20
802;DHT22;383;48.766;9.270;2022-09-16T03:00:07;14.70;99.30
802;DHT22;383;48.766;9.270;2022-09-16T03:02:35;14.70;99.70
802;DHT22;383;48.766;9.270;2022-09-16T03:05:04;14.60;99.50
802;DHT22;383;48.766;9.270;2022-09-16T03:07:31;14.60;99.70
802;DHT22;383;48.766;9.270;2022-09-16T03:09:59;14.60;99.60
802;DHT22;383;48.766;9.270;2022-09-16T03:12:47;14.50;99.90
802;DHT22;383;48.766;9.270;2022-09-16T03:15:34;14.40;99.90
802;DHT22;383;48.766;9.270;2022-09-16T03:18:20;14.40;99.90
802;DHT22;383;48.766;9.270;2022-09-16T03:20:52;14.40;99.90
802;DHT22;383;48.766;9.270;2022-09-16T03:23:28;14.40;99.90
802;DHT22;383;48.766;9.270;2022-09-16T03:26:00;14.40;99.90
802;DHT22;383;48.766;9.270;2022-09-16T03:28:35;14.50;99.80
802;DHT22;383;48.766;9.270;2022-09-16T03:31:06;14.60;99.40
802;DHT22;383;48.766;9.270;2022-09-16T03:33:38;14.60;99.20
802;DHT22;383;48.766;9.270;2022-09-16T03:36:06;14.60;99.20
802;DHT22;383;48.766;9.270;2022-09-16T03:38:35;14.60;99.20
802;DHT22;383;48.766;9.270;2022-09-16T03:41:03;14.60;99.10
802;DHT22;383;48.766;9.270;2022-09-16T03:43:31;14.60;99.10
802;DHT22;383;48.766;9.270;2022-09-16T03:45:58;14.60;98.80
802;DHT22;383;48.766;9.270;2022-09-16T03:48:25;14.60;99.00
802;DHT22;383;48.766;9.270;2022-09-16T03:50:53;14.60;99.00
802;DHT22;383;48.766;9.270;2022-09-16T03:53:19;14.60;98.70
802;DHT22;383;48.766;9.270;2022-09-16T03:55:47;14.50;99.30
802;DHT22;383;48.766;9.270;2022-09-16T03:58:14;14.60;99.10
802;DHT22;383;48.766;9.270;2022-09-16T04:00:40;14.50;99.20
802;DHT22;383;48.766;9.270;2022-09-16T04:03:07;14.50;99.10
802;DHT22;383;48.766;9.270;2022-09-16T04:05:34;14.50;99.30
802;DHT22;383;48.766;9.270;2022-09-16T04:08:02;14.50;99.20
802;DHT22;383;48.766;9.270;2022-09-16T04:10:28;14.60;98.90
802;DHT22;383;48.766;9.270;2022-09-16T04:12:56;14.70;98.60
802;DHT22;383;48.766;9.270;2022-09-16T04:15:23;14.70;98.40
802;DHT22;383;48.766;9.270;2022-09-16T04:17:50;14.70;98.50
802;DHT22;383;48.766;9.270;2022-09-16T04:20:17;14.70;98.10
802;DHT22;383;48.766;9.270;2022-09-16T04:22:43;14.80;97.90
802;DHT22;383;48.766;9.270;2022-09-16T04:25:11;14.70;98.20
802;DHT22;383;48.766;9.270;2022-09-16T04:27:38;14.70;98.30
802;DHT22;383;48.766;9.270;2022-09-16T04:30:06;14.70;98.40
802;DHT22;383;48.766;9.270;2022-09-16T04:32:33;14.80;98.00
802;DHT22;383;48.766;9.270;2022-09-16T04:34:59;14.80;97.70
802;DHT22;383;48.766;9.270;2022-09-16T04:37:29;14.80;97.70
802;DHT22;383;48.766;9.270;2022-09-16T04:39:56;14.80;97.90
802;DHT22;383;48.766;9.270;2022-09-16T04:42:24;14.80;97.80
802;DHT22;383;48.766;9.270;2022-09-16T04:44:51;14.70;97.90
802;DHT22;383;48.766;9.270;2022-09-16T04:47:18;14.80;97.80
802;DHT22;383;48.766;9.270;2022-09-16T04:49:44;14.80;97.90
802;DHT22;383;48.766;9.270;2022-09-16T04:52:11;14.80;97.70
802;DHT22;383;48.766;9.270;2022-09-16T04:54:37;14.70;98.00
802;DHT22;383;48.766;9.270;2022-09-16T04:57:04;14.70;98.40
802;DHT22;383;48.766;9.270;2022-09-16T04:59:32;14.80;98.20
802;DHT22;383;48.766;9.270;2022-09-16T05:01:59;14.70;98.10
802;DHT22;383;48.766;9.270;2022-09-16T05:04:26;14.70;98.30
802;DHT22;383;48.766;9.270;2022-09-16T05:06:52;14.80;98.20
802;DHT22;383;48.766;9.270;2022-09-16T05:09:19;14.70;98.10
802;DHT22;383;48.766;9.270;2022-09-16T05:11:47;14.70;98.50
802;DHT22;383;48.766;9.270;2022-09-16T05:14:16;14.60;99.00
802;DHT22;383;48.766;9.270;2022-09-16T05:16:45;14.60;99.20
802;DHT22;383;48.766;9.270;2022-09-16T05:19:13;14.60;99.30
802;DHT22;383;48.766;9.270;2022-09-16T05:21:40;14.60;99.50
802;DHT22;383;48.766;9.270;2022-09-16T05:24:10;14.70;99.10
802;DHT22;383;48.766;9.270;2022-09-16T05:26:38;14.70;99.00
802;DHT22;383;48.766;9.270;2022-09-16T05:29:09;14.60;99.30
802;DHT22;383;48.766;9.270;2022-09-16T05:31:37;14.60;99.40
802;DHT22;383;48.766;9.270;2022-09-16T05:34:10;14.60;99.60
802;DHT22;383;48.766;9.270;2022-09-16T05:36:38;14.60;99.60
802;DHT22;383;48.766;9.270;2022-09-16T05:39:06;14.70;99.00
802;DHT22;383;48.766;9.270;2022-09-16T05:41:33;14.70;99.10
802;DHT22;383;48.766;9.270;2022-09-16T05:44:00;14.60;99.50
802;DHT22;383;48.766;9.270;2022-09-16T05:46:27;14.60;99.90
802;DHT22;383;48.766;9.270;2022-09-16T05:48:54;14.60;99.90
802;DHT22;383;48.766;9.270;2022-09-16T05:51:23;14.60;99.90
802;DHT22;383;48.766;9.270;2022-09-16T05:53:51;14.60;99.90
802;DHT22;383;48.766;9.270;2022-09-16T05:56:19;14.60;99.90
802;DHT22;383;48.766;9.270;2022-09-16T05:58:46;14.60;99.90
802;DHT22;383;48.766;9.270;2022-09-16T06:01:15;14.60;99.90
802;DHT22;383;48.766;9.270;2022-09-16T06:03:44;14.60;99.90
802;DHT22;383;48.766;9.270;2022-09-16T06:06:13;14.60;99.90
802;DHT22;383;48.766;9.270;2022-09-16T06:08:42;14.50;99.90
802;DHT22;383;48.766;9.270;2022-09-16T06:11:11;14.60;99.90
802;DHT22;383;48.766;9.270;2022-09-16T06:13:38;14.60;99.90
802;DHT22;383;48.766;9.270;2022-09-16T06:16:06;14.70;99.90
802;DHT22;383;48.766;9.270;2022-09-16T06:18:33;14.70;99.90
802;DHT22;383;48.766;9.270;2022-09-16T06:21:05;14.80;99.90
802;DHT22;383;48.766;9.270;2022-09-16T06:23:32;14.80;99.90
802;DHT22;383;48.766;9.270;2022-09-16T06:26:01;14.80;99.90
802;DHT22;383;48.766;9.270;2022-09-16T06:28:29;14.90;99.90
802;DHT22;383;48.766;9.270;2022-09-16T06:31:04;14.80;99.60
802;DHT22;383;48.766;9.270;2022-09-16T06:33:31;14.90;99.30
802;DHT22;383;48.766;9.270;2022-09-16T06:36:02;14.80;99.50
802;DHT22;383;48.766;9.270;2022-09-16T06:38:29;14.90;99.70
802;DHT22;383;48.766;9.270;2022-09-16T06:40:57;14.90;99.80
802;DHT22;383;48.766;9.270;2022-09-16T06:43:26;14.90;99.90
802;DHT22;383;48.766;9.270;2022-09-16T06:45:56;14.90;99.90
802;DHT22;383;48.766;9.270;2022-09-16T06:48:23;15.00;99.90
802;DHT22;383;48.766;9.270;2022-09-16T06:50:57;15.00;99.60
802;DHT22;383;48.766;9.270;2022-09-16T06:53:23;15.00;99.10
802;DHT22;383;48.766;9.270;2022-09-16T06:55:50;15.00;99.00
802;DHT22;383;48.766;9.270;2022-09-16T06:58:17;15.00;99.10
802;DHT22;383;48.766;9.270;2022-09-16T07:00:45;14.90;98.90
802;DHT22;383;48.766;9.270;2022-09-16T07:03:12;14.90;98.00
802;DHT22;383;48.766;9.270;2022-09-16T07:05:38;14.90;97.60
802;DHT22;383;48.766;9.270;2022-09-16T07:08:05;14.80;97.10
802;DHT22;383;48.766;9.270;2022-09-16T07:10:32;14.70;97.40
802;DHT22;383;48.766;9.270;2022-09-16T07:12:58;14.70;96.40
802;DHT22;383;48.766;9.270;2022-09-16T07:15:25;14.70;97.10
802;DHT22;383;48.766;9.270;2022-09-16T07:17:53;14.70;96.80
802;DHT22;383;48.766;9.270;2022-09-16T07:20:20;14.60;97.60
802;DHT22;383;48.766;9.270;2022-09-16T07:22:47;14.50;98.20
802;DHT22;383;48.766;9.270;2022-09-16T07:25:18;14.50;97.50
802;DHT22;383;48.766;9.270;2022-09-16T07:27:44;14.40;97.90
802;DHT22;383;48.766;9.270;2022-09-16T07:30:11;14.30;97.70
802;DHT22;383;48.766;9.270;2022-09-16T07:32:38;14.30;97.30
802;DHT22;383;48.766;9.270;2022-09-16T07:35:07;14.20;98.30
802;DHT22;383;48.766;9.270;2022-09-16T07:37:34;14.10;98.30
802;DHT22;383;48.766;9.270;2022-09-16T07:40:01;14.00;98.80
802;DHT22;383;48.766;9.270;2022-09-16T07:42:28;14.00;99.10
802;DHT22;383;48.766;9.270;2022-09-16T07:44:55;14.00;99.10
802;DHT22;383;48.766;9.270;2022-09-16T07:47:22;14.00;99.90
802;DHT22;383;48.766;9.270;2022-09-16T07:49:48;14.00;99.90
802;DHT22;383;48.766;9.270;2022-09-16T07:52:21;14.10;99.90
802;DHT22;383;48.766;9.270;2022-09-16T07:54:50;14.20;99.90
802;DHT22;383;48.766;9.270;2022-09-16T07:57:17;14.30;99.70
802;DHT22;383;48.766;9.270;2022-09-16T07:59:43;14.30;99.70
802;DHT22;383;48.766;9.270;2022-09-16T08:02:10;14.30;99.70
802;DHT22;383;48.766;9.270;2022-09-16T08:04:37;14.30;99.50
802;DHT22;383;48.766;9.270;2022-09-16T08:07:04;14.40;99.90
802;DHT22;383;48.766;9.270;2022-09-16T08:09:32;14.50;99.40
802;DHT22;383;48.766;9.270;2022-09-16T08:12:01;14.50;99.40
802;DHT22;383;48.766;9.270;2022-09-16T08:14:28;14.50;99.60
802;DHT22;383;48.766;9.270;2022-09-16T08:16:55;14.60;99.90
802;DHT22;383;48.766;9.270;2022-09-16T08:19:21;14.80;99.90
802;DHT22;383;48.766;9.270;2022-09-16T08:21:48;14.90;99.90
802;DHT22;383;48.766;9.270;2022-09-16T08:24:15;15.00;99.70
802;DHT22;383;48.766;9.270;2022-09-16T08:26:43;15.10;99.10
802;DHT22;383;48.766;9.270;2022-09-16T08:29:10;15.20;96.90
802;DHT22;383;48.766;9.270;2022-09-16T08:31:37;15.10;97.30
802;DHT22;383;48.766;9.270;2022-09-16T08:34:04;15.20;96.40
802;DHT22;383;48.766;9.270;2022-09-16T08:36:31;15.30;97.60
802;DHT22;383;48.766;9.270;2022-09-16T08:38:58;15.30;98.00
802;DHT22;383;48.766;9.270;2022-09-16T08:41:34;15.40;97.30
802;DHT22;383;48.766;9.270;2022-09-16T08:44:14;15.40;95.00
802;DHT22;383;48.766;9.270;2022-09-16T08:46:49;15.30;95.10
802;DHT22;383;48.766;9.270;2022-09-16T08:49:29;15.30;95.70
802;DHT22;383;48.766;9.270;2022-09-16T08:51:58;15.10;95.60
802;DHT22;383;48.766;9.270;2022-09-16T08:54:29;15.10;94.70
802;DHT22;383;48.766;9.270;2022-09-16T08:57:01;15.10;95.60
802;DHT22;383;48.766;9.270;2022-09-16T08:59:34;15.10;95.80
802;DHT22;383;48.766;9.270;2022-09-16T09:02:18;15.10;95.80
802;DHT22;383;48.766;9.270;2022-09-16T09:04:46;15.20;96.20
802;DHT22;383;48.766;9.270;2022-09-16T09:07:18;15.30;96.40
802;DHT22;383;48.766;9.270;2022-09-16T09:09:53;15.30;96.50
802;DHT22;383;48.766;9.270;2022-09-16T09:12:31;15.40;97.20
802;DHT22;383;48.766;9.270;2022-09-16T09:15:16;15.60;98.10
802;DHT22;383;48.766;9.270;2022-09-16T09:17:53;15.80;96.00
802;DHT22;383;48.766;9.270;2022-09-16T09:20:32;15.80;95.90
802;DHT22;383;48.766;9.270;2022-09-16T09:23:25;16.00;96.70
802;DHT22;383;48.766;9.270;2022-09-16T09:25:57;16.10;96.00
802;DHT22;383;48.766;9.270;2022-09-16T09:28:44;16.30;96.30
802;DHT22;383;48.766;9.270;2022-09-16T09:31:21;16.40;95.30
802;DHT22;383;48.766;9.270;2022-09-16T09:33:59;16.40;94.10
802;DHT22;383;48.766;9.270;2022-09-16T09:36:41;16.40;94.20
802;DHT22;383;48.766;9.270;2022-09-16T09:39:27;16.40;91.90
802;DHT22;383;48.766;9.270;2022-09-16T09:42:02;16.30;92.40
802;DHT22;383;48.766;9.270;2022-09-16T09:44:40;16.30;94.80
802;DHT22;383;48.766;9.270;2022-09-16T09:47:16;16.30;95.70
802;DHT22;383;48.766;9.270;2022-09-16T09:49:46;16.40;95.30
802;DHT22;383;48.766;9.270;2022-09-16T09:52:19;16.50;95.10
802;DHT22;383;48.766;9.270;2022-09-16T09:54:49;16.50;94.00
802;DHT22;383;48.766;9.270;2022-09-16T09:57:22;16.60;94.00
802;DHT22;383;48.766;9.270;2022-09-16T09:59:54;16.70;91.50
802;DHT22;383;48.766;9.270;2022-09-16T10:02:25;16.70;91.40
802;DHT22;383;48.766;9.270;2022-09-16T10:04:52;16.80;90.70
802;DHT22;383;48.766;9.270;2022-09-16T10:07:21;16.80;91.60
802;DHT22;383;48.766;9.270;2022-09-16T10:09:51;16.70;91.90
802;DHT22;383;48.766;9.270;2022-09-16T10:12:29;16.60;90.60
802;DHT22;383;48.766;9.270;2022-09-16T10:14:57;16.50;92.50
802;DHT22;383;48.766;9.270;2022-09-16T10:17:27;16.50;92.50
802;DHT22;383;48.766;9.270;2022-09-16T10:19:57;16.60;90.80
802;DHT22;383;48.766;9.270;2022-09-16T10:22:27;16.50;91.90
802;DHT22;383;48.766;9.270;2022-09-16T10:24:56;16.50;92.80
802;DHT22;383;48.766;9.270;2022-09-16T10:27:26;16.60;93.40
802;DHT22;383;48.766;9.270;2022-09-16T10:30:11;16.60;92.50
802;DHT22;383;48.766;9.270;2022-09-16T10:32:47;16.60;93.10
802;DHT22;383;48.766;9.270;2022-09-16T10:35:19;16.50;89.00
802;DHT22;383;48.766;9.270;2022-09-16T10:37:54;16.50;89.40
802;DHT22;383;48.766;9.270;2022-09-16T10:40:22;16.50;90.40
802;DHT22;383;48.766;9.270;2022-09-16T10:42:51;16.50;92.60
802;DHT22;383;48.766;9.270;2022-09-16T10:45:24;16.50;92.10
802;DHT22;383;48.766;9.270;2022-09-16T10:47:55;16.50;90.30
802;DHT22;383;48.766;9.270;2022-09-16T10:50:23;16.40;90.50
802;DHT22;383;48.766;9.270;2022-09-16T10:52:50;16.40;90.40
802;DHT22;383;48.766;9.270;2022-09-16T10:55:23;16.50;90.00
802;DHT22;383;48.766;9.270;2022-09-16T10:57:51;16.60;90.60
802;DHT22;383;48.766;9.270;2022-09-16T11:00:20;16.50;92.10
802;DHT22;383;48.766;9.270;2022-09-16T11:05:54;16.60;91.30
802;DHT22;383;48.766;9.270;2022-09-16T11:08:40;16.70;91.10
802;DHT22;383;48.766;9.270;2022-09-16T11:11:14;16.70;89.60
802;DHT22;383;48.766;9.270;2022-09-16T11:13:48;16.70;91.50
802;DHT22;383;48.766;9.270;2022-09-16T11:16:30;16.70;90.10
802;DHT22;383;48.766;9.270;2022-09-16T11:19:06;16.70;91.10
802;DHT22;383;48.766;9.270;2022-09-16T11:22:03;16.80;91.60
802;DHT22;383;48.766;9.270;2022-09-16T11:24:50;16.90;91.00
802;DHT22;383;48.766;9.270;2022-09-16T11:27:28;16.70;89.30
802;DHT22;383;48.766;9.270;2022-09-16T11:30:07;16.80;91.00
802;DHT22;383;48.766;9.270;2022-09-16T11:33:04;16.80;88.90
802;DHT22;383;48.766;9.270;2022-09-16T11:35:46;16.70;89.30
802;DHT22;383;48.766;9.270;2022-09-16T11:38:26;16.80;90.00
802;DHT22;383;48.766;9.270;2022-09-16T11:41:09;16.70;89.00
802;DHT22;383;48.766;9.270;2022-09-16T11:46:45;16.60;89.70
802;DHT22;383;48.766;9.270;2022-09-16T11:49:29;16.40;90.40
802;DHT22;383;48.766;9.270;2022-09-16T11:52:11;16.50;90.40
802;DHT22;383;48.766;9.270;2022-09-16T11:54:57;16.70;89.20
802;DHT22;383;48.766;9.270;2022-09-16T11:57:28;16.80;90.80
802;DHT22;383;48.766;9.270;2022-09-16T11:59:59;17.00;89.30
802;DHT22;383;48.766;9.270;2022-09-16T12:02:30;17.20;89.00
802;DHT22;383;48.766;9.270;2022-09-16T12:05:04;17.30;84.90
802;DHT22;383;48.766;9.270;2022-09-16T12:07:38;17.50;86.00
802;DHT22;383;48.766;9.270;2022-09-16T12:10:13;17.80;81.60
802;DHT22;383;48.766;9.270;2022-09-16T12:12:43;18.00;80.80
802;DHT22;383;48.766;9.270;2022-09-16T12:15:17;18.20;75.40
802;DHT22;383;48.766;9.270;2022-09-16T12:17:51;18.30;77.40
802;DHT22;383;48.766;9.270;2022-09-16T12:20:21;18.40;79.00
802;DHT22;383;48.766;9.270;2022-09-16T12:22:54;18.60;78.30
802;DHT22;383;48.766;9.270;2022-09-16T12:25:25;18.70;78.90
802;DHT22;383;48.766;9.270;2022-09-16T12:27:58;18.90;72.30
802;DHT22;383;48.766;9.270;2022-09-16T12:30:30;18.90;76.30
802;DHT22;383;48.766;9.270;2022-09-16T12:33:04;18.90;75.00
802;DHT22;383;48.766;9.270;2022-09-16T12:35:34;18.90;77.30
802;DHT22;383;48.766;9.270;2022-09-16T12:38:03;18.90;74.90
802;DHT22;383;48.766;9.270;2022-09-16T12:40:38;18.70;69.70
802;DHT22;383;48.766;9.270;2022-09-16T12:43:30;18.70;73.40
802;DHT22;383;48.766;9.270;2022-09-16T12:46:17;18.80;73.40
802;DHT22;383;48.766;9.270;2022-09-16T12:49:19;18.70;73.60
802;DHT22;383;48.766;9.270;2022-09-16T12:52:05;18.60;72.30
802;DHT22;383;48.766;9.270;2022-09-16T12:54:50;18.70;72.60
802;DHT22;383;48.766;9.270;2022-09-16T12:57:32;18.50;72.50
802;DHT22;383;48.766;9.270;2022-09-16T13:00:10;18.40;73.00
802;DHT22;383;48.766;9.270;2022-09-16T13:02:41;18.40;72.60
802;DHT22;383;48.766;9.270;2022-09-16T13:05:13;18.50;69.10
802;DHT22;383;48.766;9.270;2022-09-16T13:07:41;18.50;70.70
802;DHT22;383;48.766;9.270;2022-09-16T13:10:17;18.60;71.30
802;DHT22;383;48.766;9.270;2022-09-16T13:12:49;18.60;72.30
802;DHT22;383;48.766;9.270;2022-09-16T13:15:24;18.70;71.90
802;DHT22;383;48.766;9.270;2022-09-16T13:17:51;18.60;69.70
802;DHT22;383;48.766;9.270;2022-09-16T13:20:21;18.60;69.30
802;DHT22;383;48.766;9.270;2022-09-16T13:22:56;18.30;70.40
802;DHT22;383;48.766;9.270;2022-09-16T13:25:28;18.40;71.90
802;DHT22;383;48.766;9.270;2022-09-16T13:27:59;18.50;73.30
802;DHT22;383;48.766;9.270;2022-09-16T13:30:29;18.60;68.70
802;DHT22;383;48.766;9.270;2022-09-16T13:32:59;18.70;72.00
802;DHT22;383;48.766;9.270;2022-09-16T13:35:38;18.90;68.90
802;DHT22;383;48.766;9.270;2022-09-16T13:38:22;18.90;68.40
802;DHT22;383;48.766;9.270;2022-09-16T13:40:55;18.90;70.80
802;DHT22;383;48.766;9.270;2022-09-16T13:43:32;18.90;70.70
802;DHT22;383;48.766;9.270;2022-09-16T13:46:01;19.10;70.30
802;DHT22;383;48.766;9.270;2022-09-16T13:48:34;19.00;67.60
802;DHT22;383;48.766;9.270;2022-09-16T13:51:08;18.70;68.00
802;DHT22;383;48.766;9.270;2022-09-16T13:53:37;18.50;68.70
802;DHT22;383;48.766;9.270;2022-09-16T13:56:21;18.50;70.40
802;DHT22;383;48.766;9.270;2022-09-16T13:58:58;18.50;73.80
802;DHT22;383;48.766;9.270;2022-09-16T14:01:31;18.60;70.10
802;DHT22;383;48.766;9.270;2022-09-16T14:04:06;18.90;71.30
802;DHT22;383;48.766;9.270;2022-09-16T14:06:45;19.00;69.60
802;DHT22;383;48.766;9.270;2022-09-16T14:09:27;19.20;70.40
802;DHT22;383;48.766;9.270;2022-09-16T14:12:03;19.30;69.70
802;DHT22;383;48.766;9.270;2022-09-16T14:14:34;19.30;69.20
802;DHT22;383;48.766;9.270;2022-09-16T14:17:03;19.30;69.10
802;DHT22;383;48.766;9.270;2022-09-16T14:19:33;19.30;69.60
802;DHT22;383;48.766;9.270;2022-09-16T14:22:03;19.20;66.20
802;DHT22;383;48.766;9.270;2022-09-16T14:24:34;19.20;65.10
802;DHT22;383;48.766;9.270;2022-09-16T14:27:03;19.40;68.00
802;DHT22;383;48.766;9.270;2022-09-16T14:29:30;19.70;63.90
802;DHT22;383;48.766;9.270;2022-09-16T14:31:57;19.60;63.10
802;DHT22;383;48.766;9.270;2022-09-16T14:34:27;19.40;65.10
802;DHT22;383;48.766;9.270;2022-09-16T14:36:54;19.30;65.80
802;DHT22;383;48.766;9.270;2022-09-16T14:39:23;19.10;66.40
802;DHT22;383;48.766;9.270;2022-09-16T14:41:53;18.90;67.90
802;DHT22;383;48.766;9.270;2022-09-16T14:44:28;18.90;68.40
802;DHT22;383;48.766;9.270;2022-09-16T14:47:00;18.80;66.60
802;DHT22;383;48.766;9.270;2022-09-16T14:49:28;18.70;67.50
802;DHT22;383;48.766;9.270;2022-09-16T14:51:56;18.80;69.50
802;DHT22;383;48.766;9.270;2022-09-16T14:54:25;18.80;69.70
802;DHT22;383;48.766;9.270;2022-09-16T14:56:56;18.80;69.20
802;DHT22;383;48.766;9.270;2022-09-16T14:59:27;18.80;66.70
802;DHT22;383;48.766;9.270;2022-09-16T15:01:57;18.70;67.80
802;DHT22;383;48.766;9.270;2022-09-16T15:04:28;18.80;69.30
802;DHT22;383;48.766;9.270;2022-09-16T15:07:03;18.70;65.90
802;DHT22;383;48.766;9.270;2022-09-16T15:09:38;18.70;67.20
802;DHT22;383;48.766;9.270;2022-09-16T15:12:18;18.60;67.50
802;DHT22;383;48.766;9.270;2022-09-16T15:14:46;18.70;67.60
802;DHT22;383;48.766;9.270;2022-09-16T15:17:16;18.80;67.60
802;DHT22;383;48.766;9.270;2022-09-16T15:19:49;18.80;67.80
802;DHT22;383;48.766;9.270;2022-09-16T15:22:17;18.60;67.60
802;DHT22;383;48.766;9.270;2022-09-16T15:24:46;18.30;68.40
802;DHT22;383;48.766;9.270;2022-09-16T15:27:20;18.30;68.60
802;DHT22;383;48.766;9.270;2022-09-16T15:29:53;18.30;70.70
802;DHT22;383;48.766;9.270;2022-09-16T15:32:22;18.30;70.70
802;DHT22;383;48.766;9.270;2022-09-16T15:35:12;18.30;70.50
802;DHT22;383;48.766;9.270;2022-09-16T15:37:41;18.40;68.00
802;DHT22;383;48.766;9.270;2022-09-16T15:40:16;18.30;68.30
802;DHT22;383;48.766;9.270;2022-09-16T15:42:44;18.30;67.80
802;DHT22;383;48.766;9.270;2022-09-16T15:45:15;18.20;67.40
802;DHT22;383;48.766;9.270;2022-09-16T15:47:55;18.00;69.20
802;DHT22;383;48.766;9.270;2022-09-16T15:50:22;17.90;70.40
802;DHT22;383;48.766;9.270;2022-09-16T15:52:54;17.80;69.50
802;DHT22;383;48.766;9.270;2022-09-16T15:55:30;17.80;71.60
802;DHT22;383;48.766;9.270;2022-09-16T15:58:02;17.70;70.90
802;DHT22;383;48.766;9.270;2022-09-16T16:00:56;17.60;71.70
802;DHT22;383;48.766;9.270;2022-09-16T16:03:23;17.70;73.00
802;DHT22;383;48.766;9.270;2022-09-16T16:05:52;17.80;71.50
802;DHT22;383;48.766;9.270;2022-09-16T16:08:37;17.90;68.00
802;DHT22;383;48.766;9.270;2022-09-16T16:11:06;17.90;69.30
802;DHT22;383;48.766;9.270;2022-09-16T16:13:33;18.00;68.90
802;DHT22;383;48.766;9.270;2022-09-16T16:16:01;18.00;70.10
802;DHT22;383;48.766;9.270;2022-09-16T16:18:30;18.00;67.60
802;DHT22;383;48.766;9.270;2022-09-16T16:20:58;18.00;70.00
802;DHT22;383;48.766;9.270;2022-09-16T16:23:26;17.90;68.60
802;DHT22;383;48.766;9.270;2022-09-16T16:25:52;17.80;69.10
802;DHT22;383;48.766;9.270;2022-09-16T16:28:19;17.70;71.70
802;DHT22;383;48.766;9.270;2022-09-16T16:30:46;17.70;71.70
802;DHT22;383;48.766;9.270;2022-09-16T16:33:14;17.60;71.60
802;DHT22;383;48.766;9.270;2022-09-16T16:35:41;17.60;74.60
802;DHT22;383;48.766;9.270;2022-09-16T16:38:07;17.60;72.50
802;DHT22;383;48.766;9.270;2022-09-16T16:40:34;17.60;70.80
802;DHT22;383;48.766;9.270;2022-09-16T16:43:01;17.50;71.30
802;DHT22;383;48.766;9.270;2022-09-16T16:45:28;17.40;72.90
802;DHT22;383;48.766;9.270;2022-09-16T16:47:55;17.30;72.50
802;DHT22;383;48.766;9.270;2022-09-16T16:50:23;17.30;72.90
802;DHT22;383;48.766;9.270;2022-09-16T16:52:50;17.30;71.20
802;DHT22;383;48.766;9.270;2022-09-16T16:55:17;17.30;71.20
802;DHT22;383;48.766;9.270;2022-09-16T16:57:44;17.30;72.30
802;DHT22;383;48.766;9.270;2022-09-16T17:00:12;17.30;70.70
802;DHT22;383;48.766;9.270;2022-09-16T17:02:39;17.20;72.40
802;DHT22;383;48.766;9.270;2022-09-16T17:05:06;17.20;72.00
802;DHT22;383;48.766;9.270;2022-09-16T17:07:34;17.10;71.50
802;DHT22;383;48.766;9.270;2022-09-16T17:10:01;17.00;72.10